sensor_id;sensor_type;location;lat;lon;timestamp;temperature;humidity
3996;DHT22;2012;49.794;9.722;2023-07-08T00:01:24;17.70;99.90
3996;DHT22;2012;49.794;9.722;2023-07-08T00:03:51;17.80;99.90
3996;DHT22;2012;49.794;9.722;2023-07-08T00:06:21;17.80;99.90
3996;DHT22;2012;49.794;9.722;2023-07-08T00:08:49;17.80;99.90
3996;DHT22;2012;49.794;9.722;2023-07-08T00:11:18;17.70;99.90
3996;DHT22;2012;49.794;9.722;2023-07-08T00:13:45;17.70;99.90
3996;DHT22;2012;49.794;9.722;2023-07-08T00:16:15;17.50;99.90
3996;DHT22;2012;49.794;9.722;2023-07-08T00:18:42;17.60;99.90
3996;DHT22;2012;49.794;9.722;2023-07-08T00:21:14;17.50;99.90
3996;DHT22;2012;49.794;9.722;2023-07-08T00:23:47;17.60;99.90
3996;DHT22;2012;49.794;9.722;2023-07-08T00:26:29;17.60;99.90
3996;DHT22;2012;49.794;9.722;2023-07-08T00:28:59;17.40;99.90
3996;DHT22;2012;49.794;9.722;2023-07-08T00:31:26;17.40;99.90
3996;DHT22;2012;49.794;9.722;2023-07-08T00:33:55;17.40;99.90
3996;DHT22;2012;49.794;9.722;2023-07-08T00:36:25;17.40;99.90
3996;DHT22;2012;49.794;9.722;2023-07-08T00:38:52;17.40;99.90
3996;DHT22;2012;49.794;9.722;2023-07-08T00:41:25;17.40;99.90
3996;DHT22;2012;49.794;9.722;2023-07-08T00:43:55;17.20;99.90
3996;DHT22;2012;49.794;9.722;2023-07-08T00:51:35;17.00;99.90
3996;DHT22;2012;49.794;9.722;2023-07-08T00:59:35;16.80;99.90
3996;DHT22;2012;49.794;9.722;2023-07-08T01:02:06;16.70;99.90
3996;DHT22;2012;49.794;9.722;2023-07-08T01:05:07;16.70;99.90
3996;DHT22;2012;49.794;9.722;2023-07-08T01:07:39;16.70;99.90
3996;DHT22;2012;49.794;9.722;2023-07-08T01:10:15;16.80;99.90
3996;DHT22;2012;49.794;9.722;2023-07-08T01:12:48;16.90;99.90
3996;DHT22;2012;49.794;9.722;2023-07-08T01:15:21;16.60;99.90
3996;DHT22;2012;49.794;9.722;2023-07-08T01:17:50;16.50;99.90
3996;DHT22;2012;49.794;9.722;2023-07-08T01:20:20;16.60;99.90
3996;DHT22;2012;49.794;9.722;2023-07-08T01:22:48;16.70;99.90
3996;DHT22;2012;49.794;9.722;2023-07-08T01:25:15;16.70;99.90
3996;DHT22;2012;49.794;9.722;2023-07-08T01:27:46;16.60;99.90
3996;DHT22;2012;49.794;9.722;2023-07-08T01:30:15;16.70;99.90
3996;DHT22;2012;49.794;9.722;2023-07-08T01:32:49;16.60;99.90
3996;DHT22;2012;49.794;9.722;2023-07-08T01:35:16;16.60;99.90
3996;DHT22;2012;49.794;9.722;2023-07-08T01:38:04;16.40;99.90
3996;DHT22;2012;49.794;9.722;2023-07-08T01:40:35;16.30;99.90
3996;DHT22;2012;49.794;9.722;2023-07-08T01:43:04;16.40;99.90
3996;DHT22;2012;49.794;9.722;2023-07-08T01:45:38;16.50;99.90
3996;DHT22;2012;49.794;9.722;2023-07-08T01:48:11;16.50;99.90
3996;DHT22;2012;49.794;9.722;2023-07-08T01:50:50;16.60;99.90
3996;DHT22;2012;49.794;9.722;2023-07-08T01:53:22;16.40;99.90
3996;DHT22;2012;49.794;9.722;2023-07-08T01:55:49;16.50;99.90
3996;DHT22;2012;49.794;9.722;2023-07-08T01:58:17;16.40;99.90
3996;DHT22;2012;49.794;9.722;2023-07-08T02:00:44;16.30;99.90
3996;DHT22;2012;49.794;9.722;2023-07-08T02:03:11;16.40;99.90
3996;DHT22;2012;49.794;9.722;2023-07-08T02:05:38;16.40;99.90
3996;DHT22;2012;49.794;9.722;2023-07-08T02:08:05;16.30;99.90
3996;DHT22;2012;49.794;9.722;2023-07-08T02:10:32;16.20;99.90
3996;DHT22;2012;49.794;9.722;2023-07-08T02:12:59;16.20;99.90
3996;DHT22;2012;49.794;9.722;2023-07-08T02:15:26;16.20;99.90
3996;DHT22;2012;49.794;9.722;2023-07-08T02:17:53;16.00;99.90
3996;DHT22;2012;49.794;9.722;2023-07-08T02:20:20;16.00;99.90
3996;DHT22;2012;49.794;9.722;2023-07-08T02:22:47;16.10;99.90
3996;DHT22;2012;49.794;9.722;2023-07-08T02:25:14;16.00;99.90
3996;DHT22;2012;49.794;9.722;2023-07-08T02:27:41;15.90;99.90
3996;DHT22;2012;49.794;9.722;2023-07-08T02:30:09;15.90;99.90
3996;DHT22;2012;49.794;9.722;2023-07-08T02:32:37;15.90;99.90
3996;DHT22;2012;49.794;9.722;2023-07-08T02:35:08;15.90;99.90
3996;DHT22;2012;49.794;9.722;2023-07-08T02:37:35;16.00;99.90
3996;DHT22;2012;49.794;9.722;2023-07-08T02:40:02;16.00;99.90
3996;DHT22;2012;49.794;9.722;2023-07-08T02:42:29;15.80;99.90
3996;DHT22;2012;49.794;9.722;2023-07-08T02:44:56;15.80;99.90
3996;DHT22;2012;49.794;9.722;2023-07-08T02:47:23;15.70;99.90
3996;DHT22;2012;49.794;9.722;2023-07-08T02:49:50;15.60;99.90
3996;DHT22;2012;49.794;9.722;2023-07-08T02:52:17;15.70;99.90
3996;DHT22;2012;49.794;9.722;2023-07-08T02:54:44;15.70;99.90
3996;DHT22;2012;49.794;9.722;2023-07-08T02:57:11;15.70;99.90
3996;DHT22;2012;49.794;9.722;2023-07-08T02:59:38;15.60;99.90
3996;DHT22;2012;49.794;9.722;2023-07-08T03:02:05;15.50;99.90
3996;DHT22;2012;49.794;9.722;2023-07-08T03:04:32;15.60;99.90
3996;DHT22;2012;49.794;9.722;2023-07-08T03:07:00;15.60;99.90
3996;DHT22;2012;49.794;9.722;2023-07-08T03:09:27;15.60;99.90
3996;DHT22;2012;49.794;9.722;2023-07-08T03:11:55;15.60;99.90
3996;DHT22;2012;49.794;9.722;2023-07-08T03:14:23;15.40;99.90
3996;DHT22;2012;49.794;9.722;2023-07-08T03:16:50;15.50;99.90
3996;DHT22;2012;49.794;9.722;2023-07-08T03:19:17;15.40;99.90
3996;DHT22;2012;49.794;9.722;2023-07-08T03:21:44;15.40;99.90
3996;DHT22;2012;49.794;9.722;2023-07-08T03:24:11;15.30;99.90
3996;DHT22;2012;49.794;9.722;2023-07-08T03:26:42;15.20;99.90
3996;DHT22;2012;49.794;9.722;2023-07-08T03:29:17;15.10;99.90
3996;DHT22;2012;49.794;9.722;2023-07-08T03:31:46;15.30;99.90
3996;DHT22;2012;49.794;9.722;2023-07-08T03:34:14;15.40;99.90
3996;DHT22;2012;49.794;9.722;2023-07-08T03:36:50;15.40;99.90
3996;DHT22;2012;49.794;9.722;2023-07-08T03:39:20;15.40;99.90
3996;DHT22;2012;49.794;9.722;2023-07-08T03:41:48;15.40;99.90
3996;DHT22;2012;49.794;9.722;2023-07-08T03:44:16;15.40;99.90
3996;DHT22;2012;49.794;9.722;2023-07-08T03:46:44;15.40;99.90
3996;DHT22;2012;49.794;9.722;2023-07-08T03:49:14;15.30;99.90
3996;DHT22;2012;49.794;9.722;2023-07-08T03:51:42;15.30;99.90
3996;DHT22;2012;49.794;9.722;2023-07-08T03:54:12;15.30;99.90
3996;DHT22;2012;49.794;9.722;2023-07-08T03:56:40;15.30;99.90
3996;DHT22;2012;49.794;9.722;2023-07-08T03:59:09;15.30;99.90
3996;DHT22;2012;49.794;9.722;2023-07-08T04:01:36;15.20;99.90
3996;DHT22;2012;49.794;9.722;2023-07-08T04:04:12;15.20;99.90
3996;DHT22;2012;49.794;9.722;2023-07-08T04:06:39;15.30;99.90
3996;DHT22;2012;49.794;9.722;2023-07-08T04:09:06;15.30;99.90
3996;DHT22;2012;49.794;9.722;2023-07-08T04:11:33;15.30;99.90
3996;DHT22;2012;49.794;9.722;2023-07-08T04:14:00;15.30;99.90
3996;DHT22;2012;49.794;9.722;2023-07-08T04:16:51;15.30;99.90
3996;DHT22;2012;49.794;9.722;2023-07-08T04:19:19;15.30;99.90
3996;DHT22;2012;49.794;9.722;2023-07-08T04:21:46;15.50;99.90
3996;DHT22;2012;49.794;9.722;2023-07-08T04:24:15;15.30;99.90
3996;DHT22;2012;49.794;9.722;2023-07-08T04:26:44;15.30;99.90
3996;DHT22;2012;49.794;9.722;2023-07-08T04:29:15;15.30;99.90
3996;DHT22;2012;49.794;9.722;2023-07-08T04:31:42;15.40;99.90
3996;DHT22;2012;49.794;9.722;2023-07-08T04:34:10;15.50;99.90
3996;DHT22;2012;49.794;9.722;2023-07-08T04:36:37;15.60;99.90
3996;DHT22;2012;49.794;9.722;2023-07-08T04:39:06;15.70;99.90
3996;DHT22;2012;49.794;9.722;2023-07-08T04:41:34;15.80;99.90
3996;DHT22;2012;49.794;9.722;2023-07-08T04:44:01;15.70;99.90
3996;DHT22;2012;49.794;9.722;2023-07-08T04:46:45;15.90;99.90
3996;DHT22;2012;49.794;9.722;2023-07-08T04:49:12;16.00;99.90
3996;DHT22;2012;49.794;9.722;2023-07-08T04:51:40;16.10;99.90
3996;DHT22;2012;49.794;9.722;2023-07-08T04:54:07;16.10;99.90
3996;DHT22;2012;49.794;9.722;2023-07-08T04:56:46;16.20;99.90
3996;DHT22;2012;49.794;9.722;2023-07-08T04:59:16;16.30;99.90
3996;DHT22;2012;49.794;9.722;2023-07-08T05:01:44;16.30;99.90
3996;DHT22;2012;49.794;9.722;2023-07-08T05:04:17;16.40;99.90
3996;DHT22;2012;49.794;9.722;2023-07-08T05:06:44;16.50;99.90
3996;DHT22;2012;49.794;9.722;2023-07-08T05:09:11;16.50;99.90
3996;DHT22;2012;49.794;9.722;2023-07-08T05:11:41;16.60;99.90
3996;DHT22;2012;49.794;9.722;2023-07-08T05:14:08;16.70;99.90
3996;DHT22;2012;49.794;9.722;2023-07-08T05:16:35;16.80;99.90
3996;DHT22;2012;49.794;9.722;2023-07-08T05:19:03;16.80;99.90
3996;DHT22;2012;49.794;9.722;2023-07-08T05:21:30;16.80;99.90
3996;DHT22;2012;49.794;9.722;2023-07-08T05:24:04;17.00;99.90
3996;DHT22;2012;49.794;9.722;2023-07-08T05:26:32;17.20;99.90
3996;DHT22;2012;49.794;9.722;2023-07-08T05:28:59;17.30;99.90
3996;DHT22;2012;49.794;9.722;2023-07-08T05:31:27;17.40;99.90
3996;DHT22;2012;49.794;9.722;2023-07-08T05:34:12;17.50;99.90
3996;DHT22;2012;49.794;9.722;2023-07-08T05:36:39;17.50;99.90
3996;DHT22;2012;49.794;9.722;2023-07-08T05:39:06;17.60;99.90
3996;DHT22;2012;49.794;9.722;2023-07-08T05:41:34;17.60;99.90
3996;DHT22;2012;49.794;9.722;2023-07-08T05:44:01;17.70;99.90
3996;DHT22;2012;49.794;9.722;2023-07-08T05:46:28;17.70;99.90
3996;DHT22;2012;49.794;9.722;2023-07-08T05:48:55;17.90;99.90
3996;DHT22;2012;49.794;9.722;2023-07-08T05:51:24;18.00;99.90
3996;DHT22;2012;49.794;9.722;2023-07-08T05:53:51;18.00;99.90
3996;DHT22;2012;49.794;9.722;2023-07-08T05:56:18;18.10;99.90
3996;DHT22;2012;49.794;9.722;2023-07-08T05:58:45;18.20;99.90
3996;DHT22;2012;49.794;9.722;2023-07-08T06:01:12;18.20;99.90
3996;DHT22;2012;49.794;9.722;2023-07-08T06:03:39;18.30;99.90
3996;DHT22;2012;49.794;9.722;2023-07-08T06:06:06;18.40;99.90
3996;DHT22;2012;49.794;9.722;2023-07-08T06:08:34;18.50;99.90
3996;DHT22;2012;49.794;9.722;2023-07-08T06:11:01;18.50;99.90
3996;DHT22;2012;49.794;9.722;2023-07-08T06:13:29;18.70;99.90
3996;DHT22;2012;49.794;9.722;2023-07-08T06:15:56;18.80;99.90
3996;DHT22;2012;49.794;9.722;2023-07-08T06:18:25;18.80;99.90
3996;DHT22;2012;49.794;9.722;2023-07-08T06:20:54;19.00;99.90
3996;DHT22;2012;49.794;9.722;2023-07-08T06:23:21;19.10;99.90
3996;DHT22;2012;49.794;9.722;2023-07-08T06:25:49;19.10;99.90
3996;DHT22;2012;49.794;9.722;2023-07-08T06:28:16;19.30;99.90
3996;DHT22;2012;49.794;9.722;2023-07-08T06:30:43;19.40;99.90
3996;DHT22;2012;49.794;9.722;2023-07-08T06:33:10;19.50;99.90
3996;DHT22;2012;49.794;9.722;2023-07-08T06:35:39;19.60;99.90
3996;DHT22;2012;49.794;9.722;2023-07-08T06:38:06;19.80;99.90
3996;DHT22;2012;49.794;9.722;2023-07-08T06:40:34;19.90;99.90
3996;DHT22;2012;49.794;9.722;2023-07-08T06:43:02;19.90;99.90
3996;DHT22;2012;49.794;9.722;2023-07-08T06:45:38;20.10;99.90
3996;DHT22;2012;49.794;9.722;2023-07-08T06:48:06;20.10;99.90
3996;DHT22;2012;49.794;9.722;2023-07-08T06:50:33;20.40;99.90
3996;DHT22;2012;49.794;9.722;2023-07-08T06:53:00;20.30;99.90
3996;DHT22;2012;49.794;9.722;2023-07-08T06:55:27;20.50;99.90
3996;DHT22;2012;49.794;9.722;2023-07-08T06:57:56;20.60;99.90
3996;DHT22;2012;49.794;9.722;2023-07-08T07:00:23;20.70;99.90
3996;DHT22;2012;49.794;9.722;2023-07-08T07:02:50;20.90;99.90
3996;DHT22;2012;49.794;9.722;2023-07-08T07:05:17;21.00;99.90
3996;DHT22;2012;49.794;9.722;2023-07-08T07:07:47;21.00;99.90
3996;DHT22;2012;49.794;9.722;2023-07-08T07:10:14;21.00;99.90
3996;DHT22;2012;49.794;9.722;2023-07-08T07:12:41;21.20;99.90
3996;DHT22;2012;49.794;9.722;2023-07-08T07:15:08;21.40;99.90
3996;DHT22;2012;49.794;9.722;2023-07-08T07:17:35;21.50;99.90
3996;DHT22;2012;49.794;9.722;2023-07-08T07:20:03;21.60;99.90
3996;DHT22;2012;49.794;9.722;2023-07-08T07:22:30;21.90;99.90
3996;DHT22;2012;49.794;9.722;2023-07-08T07:24:58;22.10;99.90
3996;DHT22;2012;49.794;9.722;2023-07-08T07:27:25;22.00;99.90
3996;DHT22;2012;49.794;9.722;2023-07-08T07:29:52;22.10;99.60
3996;DHT22;2012;49.794;9.722;2023-07-08T07:32:22;22.10;99.90
3996;DHT22;2012;49.794;9.722;2023-07-08T07:34:51;22.30;99.90
3996;DHT22;2012;49.794;9.722;2023-07-08T07:37:20;22.60;99.60
3996;DHT22;2012;49.794;9.722;2023-07-08T07:39:48;22.60;98.90
3996;DHT22;2012;49.794;9.722;2023-07-08T07:42:16;22.60;98.90
3996;DHT22;2012;49.794;9.722;2023-07-08T07:44:44;22.60;99.40
3996;DHT22;2012;49.794;9.722;2023-07-08T07:47:12;22.90;99.90
3996;DHT22;2012;49.794;9.722;2023-07-08T07:49:39;23.10;97.90
3996;DHT22;2012;49.794;9.722;2023-07-08T07:52:06;23.20;98.50
3996;DHT22;2012;49.794;9.722;2023-07-08T07:54:33;23.20;97.90
3996;DHT22;2012;49.794;9.722;2023-07-08T07:57:00;23.50;98.30
3996;DHT22;2012;49.794;9.722;2023-07-08T07:59:27;23.60;97.60
3996;DHT22;2012;49.794;9.722;2023-07-08T08:01:54;23.70;96.10
3996;DHT22;2012;49.794;9.722;2023-07-08T08:04:21;23.60;97.40
3996;DHT22;2012;49.794;9.722;2023-07-08T08:06:48;23.50;96.80
3996;DHT22;2012;49.794;9.722;2023-07-08T08:09:15;23.50;97.90
3996;DHT22;2012;49.794;9.722;2023-07-08T08:11:42;23.40;98.20
3996;DHT22;2012;49.794;9.722;2023-07-08T08:14:09;23.50;99.90
3996;DHT22;2012;49.794;9.722;2023-07-08T08:16:36;23.50;96.50
3996;DHT22;2012;49.794;9.722;2023-07-08T08:19:03;23.50;97.40
3996;DHT22;2012;49.794;9.722;2023-07-08T08:21:34;23.60;97.10
3996;DHT22;2012;49.794;9.722;2023-07-08T08:24:01;23.70;97.50
3996;DHT22;2012;49.794;9.722;2023-07-08T08:26:28;23.90;97.10
3996;DHT22;2012;49.794;9.722;2023-07-08T08:28:55;24.10;96.90
3996;DHT22;2012;49.794;9.722;2023-07-08T08:31:23;24.20;98.40
3996;DHT22;2012;49.794;9.722;2023-07-08T08:33:51;24.40;96.20
3996;DHT22;2012;49.794;9.722;2023-07-08T08:36:19;24.40;95.00
3996;DHT22;2012;49.794;9.722;2023-07-08T08:38:47;24.50;94.60
3996;DHT22;2012;49.794;9.722;2023-07-08T08:41:16;24.70;94.00
3996;DHT22;2012;49.794;9.722;2023-07-08T08:43:45;24.90;94.40
3996;DHT22;2012;49.794;9.722;2023-07-08T08:49:05;25.20;92.10
3996;DHT22;2012;49.794;9.722;2023-07-08T08:51:35;25.70;90.00
3996;DHT22;2012;49.794;9.722;2023-07-08T08:54:02;25.70;84.90
3996;DHT22;2012;49.794;9.722;2023-07-08T08:59:16;26.00;85.60
3996;DHT22;2012;49.794;9.722;2023-07-08T09:01:46;25.80;83.00
3996;DHT22;2012;49.794;9.722;2023-07-08T09:04:19;25.90;84.80
3996;DHT22;2012;49.794;9.722;2023-07-08T09:06:48;26.10;85.40
3996;DHT22;2012;49.794;9.722;2023-07-08T09:09:30;26.20;87.70
3996;DHT22;2012;49.794;9.722;2023-07-08T09:12:17;26.50;87.40
3996;DHT22;2012;49.794;9.722;2023-07-08T09:14:45;27.00;80.80
3996;DHT22;2012;49.794;9.722;2023-07-08T09:17:31;27.10;78.40
3996;DHT22;2012;49.794;9.722;2023-07-08T09:23:12;27.40;73.00
3996;DHT22;2012;49.794;9.722;2023-07-08T09:25:51;27.50;73.40
3996;DHT22;2012;49.794;9.722;2023-07-08T09:28:19;27.50;72.90
3996;DHT22;2012;49.794;9.722;2023-07-08T09:30:48;27.60;72.80
3996;DHT22;2012;49.794;9.722;2023-07-08T09:33:15;27.70;68.60
3996;DHT22;2012;49.794;9.722;2023-07-08T09:35:47;27.70;65.90
3996;DHT22;2012;49.794;9.722;2023-07-08T09:38:16;27.70;68.70
3996;DHT22;2012;49.794;9.722;2023-07-08T09:40:48;27.90;70.20
3996;DHT22;2012;49.794;9.722;2023-07-08T09:43:33;27.90;68.40
3996;DHT22;2012;49.794;9.722;2023-07-08T09:46:03;28.10;65.20
3996;DHT22;2012;49.794;9.722;2023-07-08T09:48:36;28.30;67.40
3996;DHT22;2012;49.794;9.722;2023-07-08T09:51:04;28.30;62.40
3996;DHT22;2012;49.794;9.722;2023-07-08T09:53:33;28.30;61.30
3996;DHT22;2012;49.794;9.722;2023-07-08T09:56:02;28.50;60.40
3996;DHT22;2012;49.794;9.722;2023-07-08T09:58:33;28.40;61.00
3996;DHT22;2012;49.794;9.722;2023-07-08T10:01:29;28.70;62.00
3996;DHT22;2012;49.794;9.722;2023-07-08T10:03:58;28.90;61.60
3996;DHT22;2012;49.794;9.722;2023-07-08T10:06:28;29.10;60.00
3996;DHT22;2012;49.794;9.722;2023-07-08T10:09:04;29.00;59.10
3996;DHT22;2012;49.794;9.722;2023-07-08T10:11:43;29.00;59.00
3996;DHT22;2012;49.794;9.722;2023-07-08T10:14:33;29.20;59.50
3996;DHT22;2012;49.794;9.722;2023-07-08T10:17:01;29.40;60.20
3996;DHT22;2012;49.794;9.722;2023-07-08T10:19:29;29.50;58.70
3996;DHT22;2012;49.794;9.722;2023-07-08T10:25:02;29.60;57.60
3996;DHT22;2012;49.794;9.722;2023-07-08T10:31:10;29.70;57.10
3996;DHT22;2012;49.794;9.722;2023-07-08T10:33:57;30.10;55.70
3996;DHT22;2012;49.794;9.722;2023-07-08T10:41:57;30.00;54.90
3996;DHT22;2012;49.794;9.722;2023-07-08T10:44:38;30.10;53.30
3996;DHT22;2012;49.794;9.722;2023-07-08T10:52:59;30.30;57.30
3996;DHT22;2012;49.794;9.722;2023-07-08T10:56:26;30.50;53.70
3996;DHT22;2012;49.794;9.722;2023-07-08T11:09:17;31.00;53.20
3996;DHT22;2012;49.794;9.722;2023-07-08T11:11:54;31.20;51.30
3996;DHT22;2012;49.794;9.722;2023-07-08T11:15:12;31.00;48.70
3996;DHT22;2012;49.794;9.722;2023-07-08T11:17:25;31.10;49.90
3996;DHT22;2012;49.794;9.722;2023-07-08T11:20:37;31.40;49.40
3996;DHT22;2012;49.794;9.722;2023-07-08T11:23:12;31.60;51.40
3996;DHT22;2012;49.794;9.722;2023-07-08T11:25:42;31.60;49.20
3996;DHT22;2012;49.794;9.722;2023-07-08T11:28:15;31.90;49.20
3996;DHT22;2012;49.794;9.722;2023-07-08T11:30:46;31.80;47.20
3996;DHT22;2012;49.794;9.722;2023-07-08T11:33:15;32.00;49.30
3996;DHT22;2012;49.794;9.722;2023-07-08T11:35:48;32.10;49.70
3996;DHT22;2012;49.794;9.722;2023-07-08T11:38:18;32.00;47.30
3996;DHT22;2012;49.794;9.722;2023-07-08T11:46:22;32.40;45.90
3996;DHT22;2012;49.794;9.722;2023-07-08T11:48:53;32.50;45.90
3996;DHT22;2012;49.794;9.722;2023-07-08T11:51:27;32.10;43.90
3996;DHT22;2012;49.794;9.722;2023-07-08T11:57:00;32.30;45.10
3996;DHT22;2012;49.794;9.722;2023-07-08T11:59:33;32.50;45.00
3996;DHT22;2012;49.794;9.722;2023-07-08T12:02:15;32.60;48.10
3996;DHT22;2012;49.794;9.722;2023-07-08T12:07:38;32.70;44.80
3996;DHT22;2012;49.794;9.722;2023-07-08T12:10:18;32.70;45.60
3996;DHT22;2012;49.794;9.722;2023-07-08T12:12:49;32.70;44.80
3996;DHT22;2012;49.794;9.722;2023-07-08T12:17:50;32.70;43.20
3996;DHT22;2012;49.794;9.722;2023-07-08T12:20:26;32.50;44.00
3996;DHT22;2012;49.794;9.722;2023-07-08T12:22:53;32.90;45.30
3996;DHT22;2012;49.794;9.722;2023-07-08T12:25:23;33.10;43.70
3996;DHT22;2012;49.794;9.722;2023-07-08T12:27:51;33.40;46.80
3996;DHT22;2012;49.794;9.722;2023-07-08T12:30:18;33.40;45.30
3996;DHT22;2012;49.794;9.722;2023-07-08T12:32:45;33.40;45.00
3996;DHT22;2012;49.794;9.722;2023-07-08T12:35:28;33.50;44.50
3996;DHT22;2012;49.794;9.722;2023-07-08T12:38:14;33.20;43.30
3996;DHT22;2012;49.794;9.722;2023-07-08T12:40:43;32.90;43.30
3996;DHT22;2012;49.794;9.722;2023-07-08T12:43:10;33.00;42.60
3996;DHT22;2012;49.794;9.722;2023-07-08T12:45:37;33.20;43.70
3996;DHT22;2012;49.794;9.722;2023-07-08T12:48:04;33.30;43.50
3996;DHT22;2012;49.794;9.722;2023-07-08T12:50:31;33.60;42.90
3996;DHT22;2012;49.794;9.722;2023-07-08T12:52:58;33.60;44.00
3996;DHT22;2012;49.794;9.722;2023-07-08T12:55:31;33.80;43.80
3996;DHT22;2012;49.794;9.722;2023-07-08T12:57:59;33.70;42.60
3996;DHT22;2012;49.794;9.722;2023-07-08T13:00:31;34.00;44.80
3996;DHT22;2012;49.794;9.722;2023-07-08T13:03:12;34.10;44.50
3996;DHT22;2012;49.794;9.722;2023-07-08T13:05:41;33.80;42.90
3996;DHT22;2012;49.794;9.722;2023-07-08T13:08:13;33.90;43.30
3996;DHT22;2012;49.794;9.722;2023-07-08T13:10:42;34.10;43.00
3996;DHT22;2012;49.794;9.722;2023-07-08T13:13:17;33.90;42.10
3996;DHT22;2012;49.794;9.722;2023-07-08T13:15:47;33.60;43.70
3996;DHT22;2012;49.794;9.722;2023-07-08T13:18:41;33.70;42.90
3996;DHT22;2012;49.794;9.722;2023-07-08T13:21:11;33.70;42.40
3996;DHT22;2012;49.794;9.722;2023-07-08T13:23:39;33.60;41.70
3996;DHT22;2012;49.794;9.722;2023-07-08T13:26:18;33.80;43.50
3996;DHT22;2012;49.794;9.722;2023-07-08T13:28:46;33.60;41.90
3996;DHT22;2012;49.794;9.722;2023-07-08T13:31:23;33.50;42.60
3996;DHT22;2012;49.794;9.722;2023-07-08T13:33:55;33.90;43.40
3996;DHT22;2012;49.794;9.722;2023-07-08T13:36:35;34.10;42.50
3996;DHT22;2012;49.794;9.722;2023-07-08T13:39:06;34.30;42.00
3996;DHT22;2012;49.794;9.722;2023-07-08T13:41:34;34.50;42.80
3996;DHT22;2012;49.794;9.722;2023-07-08T13:44:06;34.50;43.20
3996;DHT22;2012;49.794;9.722;2023-07-08T13:46:37;34.50;42.10
3996;DHT22;2012;49.794;9.722;2023-07-08T13:51:50;33.80;41.10
3996;DHT22;2012;49.794;9.722;2023-07-08T13:54:31;33.90;41.90
3996;DHT22;2012;49.794;9.722;2023-07-08T13:57:01;33.90;41.90
3996;DHT22;2012;49.794;9.722;2023-07-08T13:59:29;33.90;43.40
3996;DHT22;2012;49.794;9.722;2023-07-08T14:01:57;33.50;43.80
3996;DHT22;2012;49.794;9.722;2023-07-08T14:04:31;33.30;43.40
3996;DHT22;2012;49.794;9.722;2023-07-08T14:06:59;33.20;42.80
3996;DHT22;2012;49.794;9.722;2023-07-08T14:09:26;33.60;45.00
3996;DHT22;2012;49.794;9.722;2023-07-08T14:11:53;33.80;43.60
3996;DHT22;2012;49.794;9.722;2023-07-08T14:14:20;33.70;44.10
3996;DHT22;2012;49.794;9.722;2023-07-08T14:16:52;33.50;43.60
3996;DHT22;2012;49.794;9.722;2023-07-08T14:19:30;33.30;43.90
3996;DHT22;2012;49.794;9.722;2023-07-08T14:22:02;33.10;42.60
3996;DHT22;2012;49.794;9.722;2023-07-08T14:24:34;33.10;42.30
3996;DHT22;2012;49.794;9.722;2023-07-08T14:27:01;33.50;44.20
3996;DHT22;2012;49.794;9.722;2023-07-08T14:29:28;33.60;42.50
3996;DHT22;2012;49.794;9.722;2023-07-08T14:31:56;33.20;43.70
3996;DHT22;2012;49.794;9.722;2023-07-08T14:34:26;33.10;44.70
3996;DHT22;2012;49.794;9.722;2023-07-08T14:36:53;32.90;47.30
3996;DHT22;2012;49.794;9.722;2023-07-08T14:39:21;32.80;42.90
3996;DHT22;2012;49.794;9.722;2023-07-08T14:41:49;33.20;42.70
3996;DHT22;2012;49.794;9.722;2023-07-08T14:44:18;33.10;43.70
3996;DHT22;2012;49.794;9.722;2023-07-08T14:46:46;33.50;44.00
3996;DHT22;2012;49.794;9.722;2023-07-08T14:49:18;33.80;43.70
3996;DHT22;2012;49.794;9.722;2023-07-08T14:51:45;33.90;43.20
3996;DHT22;2012;49.794;9.722;2023-07-08T14:54:12;34.30;42.10
3996;DHT22;2012;49.794;9.722;2023-07-08T14:56:40;34.30;41.30
3996;DHT22;2012;49.794;9.722;2023-07-08T14:59:17;34.30;42.90
3996;DHT22;2012;49.794;9.722;2023-07-08T15:01:44;34.00;43.10
3996;DHT22;2012;49.794;9.722;2023-07-08T15:04:14;33.60;44.70
3996;DHT22;2012;49.794;9.722;2023-07-08T15:06:42;33.40;45.00
3996;DHT22;2012;49.794;9.722;2023-07-08T15:09:09;33.40;46.60
3996;DHT22;2012;49.794;9.722;2023-07-08T15:11:40;33.10;48.40
3996;DHT22;2012;49.794;9.722;2023-07-08T15:14:17;32.80;44.80
3996;DHT22;2012;49.794;9.722;2023-07-08T15:16:45;32.90;46.40
3996;DHT22;2012;49.794;9.722;2023-07-08T15:19:13;33.10;46.90
3996;DHT22;2012;49.794;9.722;2023-07-08T15:21:40;33.30;44.80
3996;DHT22;2012;49.794;9.722;2023-07-08T15:24:11;33.60;43.40
3996;DHT22;2012;49.794;9.722;2023-07-08T15:26:39;33.90;44.60
3996;DHT22;2012;49.794;9.722;2023-07-08T15:29:19;33.70;41.20
3996;DHT22;2012;49.794;9.722;2023-07-08T15:31:47;33.80;42.60
3996;DHT22;2012;49.794;9.722;2023-07-08T15:34:16;33.90;42.90
3996;DHT22;2012;49.794;9.722;2023-07-08T15:36:44;33.70;41.40
3996;DHT22;2012;49.794;9.722;2023-07-08T15:39:11;33.70;43.10
3996;DHT22;2012;49.794;9.722;2023-07-08T15:41:37;33.50;42.20
3996;DHT22;2012;49.794;9.722;2023-07-08T15:44:08;33.60;44.20
3996;DHT22;2012;49.794;9.722;2023-07-08T15:46:39;33.90;43.70
3996;DHT22;2012;49.794;9.722;2023-07-08T15:49:20;33.70;44.70
3996;DHT22;2012;49.794;9.722;2023-07-08T15:51:49;33.80;43.30
3996;DHT22;2012;49.794;9.722;2023-07-08T15:54:18;34.10;44.70
3996;DHT22;2012;49.794;9.722;2023-07-08T15:56:47;34.10;44.20
3996;DHT22;2012;49.794;9.722;2023-07-08T15:59:19;34.20;42.60
3996;DHT22;2012;49.794;9.722;2023-07-08T16:01:48;34.10;42.60
3996;DHT22;2012;49.794;9.722;2023-07-08T16:04:25;34.10;43.80
3996;DHT22;2012;49.794;9.722;2023-07-08T16:06:52;34.10;41.40
3996;DHT22;2012;49.794;9.722;2023-07-08T16:09:19;34.00;42.40
3996;DHT22;2012;49.794;9.722;2023-07-08T16:11:46;33.80;42.20
3996;DHT22;2012;49.794;9.722;2023-07-08T16:14:15;33.80;42.60
3996;DHT22;2012;49.794;9.722;2023-07-08T16:16:43;33.90;42.60
3996;DHT22;2012;49.794;9.722;2023-07-08T16:19:11;33.80;41.20
3996;DHT22;2012;49.794;9.722;2023-07-08T16:21:39;34.00;42.50
3996;DHT22;2012;49.794;9.722;2023-07-08T16:24:06;33.70;41.00
3996;DHT22;2012;49.794;9.722;2023-07-08T16:26:34;33.90;41.80
3996;DHT22;2012;49.794;9.722;2023-07-08T16:29:02;33.70;41.60
3996;DHT22;2012;49.794;9.722;2023-07-08T16:31:29;33.50;42.80
3996;DHT22;2012;49.794;9.722;2023-07-08T16:33:58;33.30;43.90
3996;DHT22;2012;49.794;9.722;2023-07-08T16:36:27;33.40;43.50
3996;DHT22;2012;49.794;9.722;2023-07-08T16:38:54;33.20;45.80
3996;DHT22;2012;49.794;9.722;2023-07-08T16:41:29;33.00;46.30
3996;DHT22;2012;49.794;9.722;2023-07-08T16:43:59;32.70;44.60
3996;DHT22;2012;49.794;9.722;2023-07-08T16:46:26;32.40;48.90
3996;DHT22;2012;49.794;9.722;2023-07-08T16:48:53;32.10;46.90
3996;DHT22;2012;49.794;9.722;2023-07-08T16:51:26;32.40;45.80
3996;DHT22;2012;49.794;9.722;2023-07-08T16:54:10;32.30;52.00
3996;DHT22;2012;49.794;9.722;2023-07-08T16:56:38;32.50;51.60
3996;DHT22;2012;49.794;9.722;2023-07-08T16:59:07;32.40;47.50
3996;DHT22;2012;49.794;9.722;2023-07-08T17:01:34;32.50;45.70
3996;DHT22;2012;49.794;9.722;2023-07-08T17:04:01;32.50;47.40
3996;DHT22;2012;49.794;9.722;2023-07-08T17:06:30;32.30;47.50
3996;DHT22;2012;49.794;9.722;2023-07-08T17:08:57;32.30;47.60
3996;DHT22;2012;49.794;9.722;2023-07-08T17:11:25;32.30;46.70
3996;DHT22;2012;49.794;9.722;2023-07-08T17:13:52;32.30;46.30
3996;DHT22;2012;49.794;9.722;2023-07-08T17:16:28;32.30;48.00
3996;DHT22;2012;49.794;9.722;2023-07-08T17:18:56;32.30;49.00
3996;DHT22;2012;49.794;9.722;2023-07-08T17:21:24;32.10;52.40
3996;DHT22;2012;49.794;9.722;2023-07-08T17:23:50;31.70;57.20
3996;DHT22;2012;49.794;9.722;2023-07-08T17:26:18;31.70;56.40